createdAt,value
2019-04-20T00:03:47.328Z,43.80
2019-04-20T00:08:58.776Z,43.80
2019-04-20T00:14:04.020Z,43.80
2019-04-20T00:19:04.083Z,43.80
2019-04-20T00:24:21.031Z,43.80
2019-04-20T00:29:36.715Z,43.80
2019-04-20T00:34:29.658Z,43.70
2019-04-20T00:39:30.154Z,43.80
2019-04-20T00:44:38.192Z,43.90
2019-04-20T00:49:55.099Z,43.80
2019-04-20T00:54:45.316Z,43.70
2019-04-20T01:00:13.446Z,43.70
2019-04-20T01:05:11.003Z,43.70
2019-04-20T01:10:06.967Z,43.70
2019-04-20T01:15:16.589Z,43.70
2019-04-20T01:20:16.381Z,43.60
2019-04-20T01:25:27.267Z,43.60
2019-04-20T01:30:34.997Z,43.60
2019-04-20T01:35:48.870Z,43.60
2019-04-20T01:40:38.156Z,43.60
2019-04-20T01:45:43.926Z,43.50
2019-04-20T01:50:55.060Z,43.50
2019-04-20T01:56:07.265Z,43.50
2019-04-20T02:01:35.464Z,43.50
2019-04-20T02:06:42.601Z,43.50
2019-04-20T02:11:44.706Z,43.50
2019-04-20T02:16:51.498Z,43.50
2019-04-20T02:22:03.974Z,43.50
2019-04-20T02:26:57.887Z,43.40
2019-04-20T02:32:47.327Z,43.40
2019-04-20T02:42:59.895Z,43.40
2019-04-20T02:48:02.823Z,43.50
2019-04-20T02:53:11.454Z,43.40
2019-04-20T02:58:10.990Z,43.40
2019-04-20T03:02:59.978Z,43.20
2019-04-20T03:08:10.067Z,43.20
2019-04-20T03:13:19.769Z,43.30
2019-04-20T03:18:26.169Z,43.30
2019-04-20T03:23:35.706Z,43.20
2019-04-20T03:28:51.786Z,43.20
2019-04-20T03:34:30.271Z,43.20
2019-04-20T03:39:01.576Z,43.20
2019-04-20T03:43:54.093Z,43.30
2019-04-20T03:49:17.175Z,43.20
2019-04-20T03:54:24.626Z,43.10
2019-04-20T03:59:44.629Z,43.20
2019-04-20T04:05:04.387Z,43.20
2019-04-20T04:10:04.677Z,43.20
2019-04-20T04:14:55.473Z,43.10
2019-04-20T04:20:05.086Z,43.10
2019-04-20T04:25:20.040Z,43.10
2019-04-20T04:30:26.347Z,43.20
2019-04-20T04:35:26.709Z,43.20
2019-04-20T04:40:51.483Z,43.20
2019-04-20T04:45:29.773Z,43.10
2019-04-20T04:50:37.345Z,43.10
2019-04-20T04:55:50.088Z,43.10
2019-04-20T05:00:43.035Z,43.00
2019-04-20T05:06:23.199Z,43.00
2019-04-20T05:11:11.380Z,43.00
2019-04-20T05:16:37.329Z,43.10
2019-04-20T05:22:10.786Z,43.10
2019-04-20T05:27:37.088Z,43.10
2019-04-20T05:32:31.516Z,43.10
2019-04-20T05:37:51.340Z,43.00
2019-04-20T05:42:52.861Z,43.10
2019-04-20T05:47:54.888Z,43.10
2019-04-20T05:53:08.798Z,43.10
2019-04-20T05:58:08.894Z,43.10
2019-04-20T06:03:12.428Z,43.20
2019-04-20T06:08:34.190Z,43.10
2019-04-20T06:13:32.629Z,43.20
2019-04-20T06:18:46.981Z,43.20
2019-04-20T06:24:02.297Z,43.20
2019-04-20T06:29:07.067Z,43.20
2019-04-20T06:39:27.714Z,43.30
2019-04-20T06:49:33.288Z,43.30
2019-04-20T06:55:05.202Z,43.30
2019-04-20T07:05:19.085Z,43.40
2019-04-20T07:10:43.941Z,43.40
2019-04-20T07:15:30.272Z,43.40
2019-04-20T07:21:07.060Z,43.40
2019-04-20T07:26:17.039Z,43.50
2019-04-20T07:31:17.228Z,43.40
2019-04-20T07:36:24.500Z,43.40
2019-04-20T07:41:33.172Z,43.40
2019-04-20T07:46:47.083Z,43.50
2019-04-20T07:51:24.974Z,43.50
2019-04-20T07:56:50.463Z,43.50
2019-04-20T08:02:15.761Z,43.50
2019-04-20T08:06:59.111Z,43.50
2019-04-20T08:12:25.673Z,43.50
2019-04-20T08:17:38.961Z,43.60
2019-04-20T08:22:34.427Z,43.60
2019-04-20T08:27:23.382Z,43.60
2019-04-20T08:33:10.012Z,43.60
2019-04-20T08:43:39.530Z,43.60
2019-04-20T08:48:28.636Z,43.70
2019-04-20T08:53:39.386Z,43.70
2019-04-20T08:58:20.345Z,43.70
2019-04-20T09:03:30.210Z,43.90
2019-04-20T09:08:44.336Z,43.90
2019-04-20T09:13:45.523Z,43.80
2019-04-20T09:18:50.228Z,43.90
2019-04-20T09:24:17.262Z,43.90
2019-04-20T09:29:18.187Z,44.30
2019-04-20T09:34:23.293Z,43.90
2019-04-20T09:39:28.447Z,43.90
2019-04-20T09:44:31.510Z,44.00
2019-04-20T09:49:42.478Z,44.10
2019-04-20T09:54:55.142Z,44.00
2019-04-20T10:00:01.816Z,44.30
2019-04-20T10:04:49.402Z,44.70
2019-04-20T10:09:53.852Z,44.50
2019-04-20T10:15:03.205Z,44.50
2019-04-20T10:20:11.548Z,44.60
2019-04-20T10:25:08.838Z,44.50
2019-04-20T10:30:12.733Z,44.80
2019-04-20T10:35:18.534Z,44.90
2019-04-20T10:40:40.564Z,45.00
2019-04-20T10:45:28.699Z,45.20
2019-04-20T10:50:32.718Z,45.50
2019-04-20T10:55:37.738Z,44.90
2019-04-20T11:00:44.017Z,44.80
2019-04-20T11:05:48.911Z,44.70
2019-04-20T11:11:05.105Z,45.20
2019-04-20T11:15:58.458Z,44.90
2019-04-20T11:21:04.157Z,45.00
2019-04-20T11:26:08.563Z,45.20
2019-04-20T11:31:12.607Z,45.50
2019-04-20T11:36:17.154Z,45.00
2019-04-20T11:41:25.572Z,45.10
2019-04-20T11:46:26.943Z,45.00
2019-04-20T11:51:31.750Z,45.10
2019-04-20T11:56:40.823Z,45.00
2019-04-20T12:02:06.419Z,45.20
2019-04-20T12:07:10.937Z,45.10
2019-04-20T12:12:29.999Z,45.10
2019-04-20T12:17:24.016Z,44.70
2019-04-20T12:22:28.251Z,44.50
2019-04-20T12:27:32.504Z,44.50
2019-04-20T12:32:42.912Z,44.70
2019-04-20T12:37:43.054Z,44.30
2019-04-20T12:42:47.083Z,44.40
2019-04-20T12:47:51.529Z,44.60
2019-04-20T12:52:56.743Z,44.50
2019-04-20T12:58:01.129Z,44.60
2019-04-20T13:03:07.443Z,44.80
2019-04-20T13:08:14.725Z,44.50
2019-04-20T13:13:28.267Z,44.50
2019-04-20T13:18:41.233Z,44.50
2019-04-20T13:23:45.136Z,44.60
2019-04-20T13:28:50.923Z,44.30
2019-04-20T13:33:54.991Z,44.30
2019-04-20T13:38:59.643Z,44.20
2019-04-20T13:44:04.982Z,44.20
2019-04-20T13:49:11.071Z,44.20
2019-04-20T13:54:18.000Z,44.20
2019-04-20T13:59:44.084Z,44.20
2019-04-20T14:04:54.958Z,44.20
2019-04-20T14:09:59.508Z,44.10
2019-04-20T14:15:04.938Z,44.20
2019-04-20T14:20:14.739Z,44.30
2019-04-20T14:25:18.402Z,44.20
2019-04-20T14:30:22.487Z,44.10
2019-04-20T14:35:27.069Z,44.20
2019-04-20T14:40:32.388Z,44.20
2019-04-20T14:45:36.689Z,44.20
2019-04-20T14:50:41.413Z,44.10
2019-04-20T14:55:45.436Z,44.20
2019-04-20T15:00:58.464Z,44.20
2019-04-20T15:06:03.404Z,44.10
2019-04-20T15:11:07.389Z,44.10
2019-04-20T15:16:12.717Z,44.00
2019-04-20T15:21:17.605Z,44.10
2019-04-20T15:26:22.422Z,44.00
2019-04-20T15:31:28.081Z,44.00
2019-04-20T15:36:32.284Z,44.00
2019-04-20T15:41:36.092Z,44.10
2019-04-20T15:46:40.489Z,44.20
2019-04-20T15:51:46.003Z,44.00
2019-04-20T15:56:56.959Z,43.90
2019-04-20T16:02:00.142Z,44.00
2019-04-20T16:07:05.454Z,43.90
2019-04-20T16:12:10.998Z,43.90
2019-04-20T16:17:15.215Z,43.90
2019-04-20T16:22:21.663Z,43.90
2019-04-20T16:27:36.289Z,43.90
2019-04-20T16:32:40.692Z,43.90
2019-04-20T16:37:44.818Z,43.90
2019-04-20T16:42:48.570Z,43.90
2019-04-20T16:47:54.409Z,43.90
2019-04-20T16:52:59.100Z,43.90
2019-04-20T16:58:03.876Z,43.90
2019-04-20T17:03:09.098Z,43.80
2019-04-20T17:08:13.186Z,43.90
2019-04-20T17:13:28.396Z,43.80
2019-04-20T17:18:23.574Z,43.80
2019-04-20T17:23:27.696Z,43.80
2019-04-20T17:28:55.524Z,43.80
2019-04-20T17:34:25.772Z,43.80
2019-04-20T17:39:19.617Z,43.80
2019-04-20T17:44:34.380Z,43.80
2019-04-20T17:49:34.866Z,43.70
2019-04-20T17:54:45.219Z,43.70
2019-04-20T17:59:58.683Z,43.70
2019-04-20T18:05:28.397Z,43.60
2019-04-20T18:10:31.225Z,43.60
2019-04-20T18:15:38.341Z,43.70
2019-04-20T18:20:30.492Z,43.70
2019-04-20T18:26:00.288Z,43.60
2019-04-20T18:31:01.013Z,43.70
2019-04-20T18:36:03.125Z,43.60
2019-04-20T18:41:18.745Z,43.60
2019-04-20T18:46:29.281Z,43.70
2019-04-20T18:51:19.658Z,43.60
2019-04-20T18:56:32.285Z,43.60
2019-04-20T19:01:31.979Z,43.60
2019-04-20T19:06:35.672Z,43.60
2019-04-20T19:11:44.737Z,43.60
2019-04-20T19:17:00.353Z,43.60
2019-04-20T19:21:54.226Z,43.60
2019-04-20T19:27:03.424Z,43.50
2019-04-20T19:32:19.543Z,43.50
2019-04-20T19:37:20.781Z,43.60
2019-04-20T19:42:32.243Z,43.50
2019-04-20T19:47:41.349Z,43.50
2019-04-20T19:52:53.155Z,43.50
2019-04-20T19:57:50.752Z,43.50
2019-04-20T20:02:37.253Z,43.60
2019-04-20T20:07:44.199Z,43.60
2019-04-20T20:12:52.811Z,43.50
2019-04-20T20:18:10.970Z,43.60
2019-04-20T20:23:00.120Z,43.60
2019-04-20T20:28:14.541Z,43.60
2019-04-20T20:33:27.904Z,43.50
2019-04-20T20:38:22.835Z,43.50
2019-04-20T20:43:34.421Z,43.50
2019-04-20T20:48:38.849Z,43.50
2019-04-20T20:53:42.910Z,43.50
2019-04-20T20:58:48.447Z,43.50
2019-04-20T21:03:46.960Z,43.40
2019-04-20T21:08:53.732Z,43.40
2019-04-20T21:13:55.490Z,43.40
2019-04-20T21:19:18.238Z,43.40
2019-04-20T21:24:30.782Z,43.40
2019-04-20T21:29:40.847Z,43.40
2019-04-20T21:34:44.466Z,43.40
2019-04-20T21:39:53.386Z,43.40
2019-04-20T21:44:57.632Z,43.30
2019-04-20T21:50:15.695Z,43.40
2019-04-20T21:55:03.861Z,44.10
2019-04-20T22:00:19.426Z,43.30
2019-04-20T22:05:15.629Z,43.40
2019-04-20T22:10:24.643Z,43.30
2019-04-20T22:15:31.511Z,43.30
2019-04-20T22:20:38.608Z,43.20
2019-04-20T22:25:53.003Z,43.80
2019-04-20T22:30:42.038Z,43.20
2019-04-20T22:35:52.984Z,43.20
2019-04-20T22:40:52.485Z,43.20
2019-04-20T22:45:57.202Z,43.30
2019-04-20T22:51:24.935Z,43.30
2019-04-20T22:56:24.250Z,43.20
2019-04-20T23:01:19.310Z,43.20
2019-04-20T23:06:18.573Z,43.20
2019-04-20T23:11:27.200Z,43.20
2019-04-20T23:16:38.662Z,43.10
2019-04-20T23:21:34.139Z,43.10
2019-04-20T23:26:42.138Z,43.10
2019-04-20T23:31:48.417Z,43.10
2019-04-20T23:36:50.750Z,43.10
2019-04-20T23:42:00.599Z,43.10
2019-04-20T23:47:23.701Z,43.10
2019-04-20T23:52:49.134Z,43.10
2019-04-20T23:57:33.754Z,43.10
